Time;durP1;ratioP1;P1;durP2;ratioP2;P2;SDS_P1;SDS_P2;PMS_P1;PMS_P2;Temp;Humidity;BMP_temperature;BMP_pressure;BME280_temperature;BME280_humidity;BME280_pressure;Samples;Min_cycle;Max_cycle;Signal;HPM_P1;HPM_P2
2024/02/05 00:01:49;;;;;;;5.70;2.90;;;;;;;6.01;100.00;98020.45;137523;1274;22165;-84
2024/02/05 00:04:50;;;;;;;5.00;3.00;;;;;;;5.96;100.00;98022.27;137510;1274;22082;-82
2024/02/05 00:07:51;;;;;;;7.70;2.70;;;;;;;5.91;100.00;98029.95;137487;1274;22051;-81
2024/02/05 00:10:52;;;;;;;6.00;2.60;;;;;;;5.86;100.00;98029.65;137514;1274;22097;-81
2024/02/05 00:13:53;;;;;;;6.70;2.90;;;;;;;5.81;100.00;98020.77;137498;1274;22206;-81
2024/02/05 00:16:54;;;;;;;5.20;2.50;;;;;;;5.78;100.00;98012.09;137507;1274;22443;-84
2024/02/05 00:19:56;;;;;;;5.40;2.60;;;;;;;5.75;100.00;98010.83;137485;1274;22287;-83
2024/02/05 00:23:00;;;;;;;4.10;2.40;;;;;;;5.73;100.00;98005.61;137517;1274;22301;-83
2024/02/05 00:26:03;;;;;;;4.70;2.40;;;;;;;5.72;100.00;98005.59;137522;1274;22788;-84
2024/02/05 00:29:07;;;;;;;3.40;2.40;;;;;;;5.69;100.00;98002.45;137465;1274;22087;-83
2024/02/05 00:32:09;;;;;;;3.30;2.20;;;;;;;5.69;100.00;98006.75;137493;1274;22098;-84
2024/02/05 00:35:13;;;;;;;3.40;2.20;;;;;;;5.65;100.00;98009.97;137507;1274;22452;-84
2024/02/05 00:38:14;;;;;;;4.70;1.90;;;;;;;5.63;100.00;98006.98;137502;1274;22441;-84
2024/02/05 00:41:15;;;;;;;3.20;2.00;;;;;;;5.61;100.00;98007.83;137459;1274;22095;-84
2024/02/05 00:44:16;;;;;;;2.00;1.80;;;;;;;5.57;100.00;98003.25;137501;1274;22220;-83
2024/02/05 00:47:18;;;;;;;3.50;2.30;;;;;;;5.54;100.00;98007.17;137525;1274;22052;-84
2024/02/05 00:50:19;;;;;;;4.00;2.50;;;;;;;5.52;100.00;98011.96;137495;1271;22180;-84
2024/02/05 00:53:20;;;;;;;5.10;2.40;;;;;;;5.50;100.00;98000.20;137492;1274;22461;-84
2024/02/05 00:56:21;;;;;;;6.60;2.80;;;;;;;5.46;100.00;97990.98;137466;1274;22217;-84
2024/02/05 00:59:22;;;;;;;3.50;2.50;;;;;;;5.43;100.00;97995.94;137529;1274;22177;-84
2024/02/05 01:02:23;;;;;;;2.50;2.00;;;;;;;5.41;100.00;97989.34;137535;1274;22042;-84
2024/02/05 01:05:25;;;;;;;4.00;2.10;;;;;;;5.36;100.00;97989.42;137521;1274;22549;-84
2024/02/05 01:08:26;;;;;;;2.90;2.20;;;;;;;5.33;100.00;97987.46;137503;1270;22215;-84
2024/02/05 01:11:27;;;;;;;4.60;1.90;;;;;;;5.29;100.00;97991.69;137485;1274;22413;-84
2024/02/05 01:14:28;;;;;;;3.70;2.00;;;;;;;5.23;100.00;97993.98;137518;1274;22124;-84
2024/02/05 01:17:29;;;;;;;5.10;2.00;;;;;;;5.19;100.00;97983.21;137536;1274;22709;-85
2024/02/05 01:20:30;;;;;;;3.10;2.00;;;;;;;5.17;100.00;97972.29;137512;1274;22028;-84
2024/02/05 01:23:31;;;;;;;2.20;2.00;;;;;;;5.15;100.00;97969.14;137484;1274;22074;-83
2024/02/05 01:26:32;;;;;;;4.80;2.30;;;;;;;5.12;100.00;97976.35;137480;1274;22693;-84
2024/02/05 01:29:33;;;;;;;2.90;2.00;;;;;;;5.11;100.00;97971.30;137564;1274;22023;-84
2024/02/05 01:32:35;;;;;;;2.10;1.70;;;;;;;5.09;100.00;97963.17;137514;1274;22126;-84
2024/02/05 01:35:36;;;;;;;4.80;2.20;;;;;;;5.08;100.00;97959.88;137502;1274;22661;-84
2024/02/05 01:38:38;;;;;;;5.30;1.90;;;;;;;5.07;100.00;97953.30;137487;1274;22095;-84
2024/02/05 01:41:39;;;;;;;4.40;2.10;;;;;;;5.05;100.00;97942.74;137521;1274;22115;-84
2024/02/05 01:44:40;;;;;;;2.90;2.40;;;;;;;5.01;100.00;97944.40;137532;1274;22100;-84
2024/02/05 01:47:41;;;;;;;6.70;2.20;;;;;;;4.99;100.00;97933.15;137473;1274;22079;-84
2024/02/05 01:50:42;;;;;;;2.20;1.50;;;;;;;4.99;100.00;97925.40;137515;1274;22080;-85
2024/02/05 01:53:43;;;;;;;3.90;2.00;;;;;;;4.99;100.00;97929.17;137467;1274;22103;-86
2024/02/05 01:56:46;;;;;;;5.10;2.10;;;;;;;4.98;100.00;97922.60;137506;1274;22762;-86
2024/02/05 01:59:47;;;;;;;3.00;2.30;;;;;;;4.96;100.00;97908.27;137451;1274;22061;-85
2024/02/05 02:02:48;;;;;;;6.20;2.50;;;;;;;4.96;100.00;97905.68;137499;1274;22012;-85
2024/02/05 02:05:49;;;;;;;3.50;2.40;;;;;;;4.98;100.00;97906.57;137519;1274;22291;-85
2024/02/05 02:08:50;;;;;;;8.40;2.00;;;;;;;5.00;100.00;97897.30;137498;1274;22670;-85
2024/02/05 02:11:54;;;;;;;8.30;2.30;;;;;;;5.00;100.00;97885.73;137462;1274;22159;-83
2024/02/05 02:14:55;;;;;;;6.90;2.20;;;;;;;4.98;100.00;97878.30;137481;1274;21924;-83
2024/02/05 02:17:56;;;;;;;5.00;2.40;;;;;;;4.97;100.00;97884.65;137764;1274;22350;-82
2024/02/05 02:20:58;;;;;;;5.00;2.10;;;;;;;4.95;100.00;97882.55;137700;1274;22069;-82
2024/02/05 02:23:59;;;;;;;2.40;1.70;;;;;;;4.94;100.00;97884.78;137742;1274;22161;-82
2024/02/05 02:27:00;;;;;;;7.40;2.20;;;;;;;4.94;100.00;97881.14;137695;1274;22251;-83
2024/02/05 02:30:01;;;;;;;2.80;1.80;;;;;;;4.94;100.00;97885.11;137517;1274;22106;-82
2024/02/05 02:33:03;;;;;;;3.30;1.90;;;;;;;4.92;100.00;97879.05;137457;1274;22290;-82
2024/02/05 02:36:05;;;;;;;4.50;1.90;;;;;;;4.93;100.00;97874.75;137482;1274;22313;-83
2024/02/05 02:39:06;;;;;;;4.20;1.30;;;;;;;4.92;100.00;97870.09;137515;1274;22114;-83
2024/02/05 02:42:07;;;;;;;5.20;1.70;;;;;;;4.90;100.00;97865.92;137542;1274;22502;-83
2024/02/05 02:45:08;;;;;;;2.90;1.50;;;;;;;4.90;100.00;97864.86;137495;1274;22291;-83
2024/02/05 02:48:10;;;;;;;3.30;2.00;;;;;;;4.89;100.00;97865.19;137503;1274;22100;-82
2024/02/05 02:51:11;;;;;;;2.50;1.80;;;;;;;4.90;100.00;97864.70;137501;1274;22219;-82
2024/02/05 02:54:12;;;;;;;3.20;1.60;;;;;;;4.89;100.00;97859.16;137449;1274;22175;-82
2024/02/05 02:57:15;;;;;;;3.40;1.80;;;;;;;4.88;100.00;97856.56;137521;1274;22426;-82
2024/02/05 03:00:16;;;;;;;1.70;1.30;;;;;;;4.87;100.00;97857.94;137458;1274;22017;-82
2024/02/05 03:03:17;;;;;;;3.60;1.70;;;;;;;4.86;100.00;97859.13;137482;1274;22062;-82
2024/02/05 03:06:18;;;;;;;1.60;1.40;;;;;;;4.85;100.00;97860.48;137513;1274;22067;-82
2024/02/05 03:09:20;;;;;;;1.80;1.30;;;;;;;4.86;100.00;97858.60;137474;1274;22130;-82
2024/02/05 03:12:21;;;;;;;1.30;1.20;;;;;;;4.86;100.00;97863.94;137517;1274;22064;-84
2024/02/05 03:15:22;;;;;;;1.90;1.30;;;;;;;4.84;100.00;97863.20;137474;1274;22087;-82
2024/02/05 03:18:23;;;;;;;4.30;1.10;;;;;;;4.84;100.00;97860.44;137448;1274;22231;-82
2024/02/05 03:21:24;;;;;;;4.30;1.10;;;;;;;4.84;100.00;97853.55;137444;1274;22138;-82
2024/02/05 03:24:26;;;;;;;3.10;1.30;;;;;;;4.84;100.00;97851.99;137434;1263;22150;-82
2024/02/05 03:27:27;;;;;;;2.40;1.20;;;;;;;4.82;100.00;97844.39;137432;1274;22146;-81
2024/02/05 03:30:29;;;;;;;1.20;1.10;;;;;;;4.83;100.00;97845.26;137431;1274;22730;-82
2024/02/05 03:33:30;;;;;;;4.30;1.10;;;;;;;4.82;100.00;97848.02;137432;1274;22587;-82
2024/02/05 03:36:31;;;;;;;1.70;1.50;;;;;;;4.84;100.00;97845.97;137450;1274;22531;-82
2024/02/05 03:39:32;;;;;;;1.10;1.00;;;;;;;4.85;100.00;97844.44;137472;1274;22059;-82
2024/02/05 03:42:33;;;;;;;1.30;1.20;;;;;;;4.86;100.00;97842.56;137508;1274;22064;-82
2024/02/05 03:45:34;;;;;;;2.80;1.50;;;;;;;4.87;100.00;97842.92;137506;1260;22042;-82
2024/02/05 03:48:36;;;;;;;2.10;1.70;;;;;;;4.86;100.00;97833.77;137453;1274;22050;-82
2024/02/05 03:51:38;;;;;;;1.60;1.10;;;;;;;4.88;100.00;97828.63;137450;1274;22603;-81
2024/02/05 03:54:39;;;;;;;1.20;1.10;;;;;;;4.89;100.00;97822.97;137461;1274;22070;-82
2024/02/05 03:57:40;;;;;;;0.90;0.90;;;;;;;4.90;100.00;97821.77;137478;1274;22081;-82
2024/02/05 04:00:41;;;;;;;1.20;0.90;;;;;;;4.90;100.00;97818.31;137395;1274;22114;-82
2024/02/05 04:03:43;;;;;;;1.10;1.00;;;;;;;4.92;100.00;97811.63;137389;1274;22086;-82
2024/02/05 04:06:44;;;;;;;1.70;1.50;;;;;;;4.94;100.00;97806.31;137413;1274;22104;-82
2024/02/05 04:09:45;;;;;;;1.60;1.30;;;;;;;4.95;100.00;97797.20;137417;1274;22206;-82
2024/02/05 04:12:46;;;;;;;2.80;1.30;;;;;;;4.96;100.00;97793.77;137444;1274;22257;-82
2024/02/05 04:15:47;;;;;;;5.20;1.50;;;;;;;4.96;100.00;97796.71;137393;1274;22271;-82
2024/02/05 04:18:49;;;;;;;1.60;1.30;;;;;;;4.97;100.00;97795.69;137444;1274;22673;-82
2024/02/05 04:21:50;;;;;;;2.20;1.10;;;;;;;4.98;100.00;97792.60;137456;1274;22114;-82
2024/02/05 04:24:51;;;;;;;1.60;1.50;;;;;;;4.97;100.00;97796.73;137457;1274;22082;-83
2024/02/05 04:27:52;;;;;;;2.40;1.70;;;;;;;5.00;100.00;97796.77;137442;1274;22064;-82
2024/02/05 04:30:53;;;;;;;4.70;2.00;;;;;;;5.01;100.00;97789.21;137456;1274;22544;-82
2024/02/05 04:33:56;;;;;;;2.90;2.00;;;;;;;5.04;100.00;97788.05;137480;1274;22166;-83
2024/02/05 04:36:58;;;;;;;2.40;1.70;;;;;;;5.04;100.00;97781.49;137494;1274;22226;-84
2024/02/05 04:39:59;;;;;;;2.90;1.90;;;;;;;5.06;100.00;97777.05;137470;1267;22154;-82
2024/02/05 04:43:00;;;;;;;2.60;2.10;;;;;;;5.07;100.00;97770.00;137442;1274;22140;-82
2024/02/05 04:46:01;;;;;;;1.70;1.60;;;;;;;5.09;100.00;97778.65;137375;1274;22155;-82
2024/02/05 04:49:02;;;;;;;2.10;1.60;;;;;;;5.10;100.00;97771.25;137443;1274;22137;-83
2024/02/05 04:52:04;;;;;;;2.80;2.20;;;;;;;5.10;100.00;97767.98;137447;1274;22108;-83
2024/02/05 04:55:05;;;;;;;7.30;2.30;;;;;;;5.12;100.00;97762.65;137416;1274;22212;-82
2024/02/05 04:58:06;;;;;;;6.30;1.90;;;;;;;5.10;100.00;97755.39;137464;1274;22132;-82
2024/02/05 05:01:07;;;;;;;4.20;2.60;;;;;;;5.09;100.00;97759.52;137549;1274;22330;-83
2024/02/05 05:04:09;;;;;;;4.20;2.60;;;;;;;5.11;100.00;97759.02;137568;1274;22120;-82
2024/02/05 05:07:10;;;;;;;4.40;3.30;;;;;;;5.15;100.00;97759.77;137587;1274;22224;-82
2024/02/05 05:10:12;;;;;;;8.00;4.60;;;;;;;5.17;100.00;97749.96;137477;1274;22117;-82
2024/02/05 05:13:13;;;;;;;6.50;3.60;;;;;;;5.18;100.00;97751.89;137521;1274;22159;-83
2024/02/05 05:16:14;;;;;;;7.40;2.80;;;;;;;5.20;100.00;97749.70;137438;1274;22260;-83
2024/02/05 05:19:15;;;;;;;5.10;3.00;;;;;;;5.22;100.00;97748.55;137379;1274;22204;-83
2024/02/05 05:22:18;;;;;;;4.40;3.30;;;;;;;5.24;100.00;97744.25;137355;1274;22227;-83
2024/02/05 05:25:19;;;;;;;2.70;2.10;;;;;;;5.26;100.00;97744.97;137394;1274;22101;-80
2024/02/05 05:28:20;;;;;;;3.60;2.60;;;;;;;5.28;100.00;97747.94;137369;1274;22183;-82
2024/02/05 05:31:21;;;;;;;3.30;2.50;;;;;;;5.30;100.00;97749.17;137411;1274;22220;-82
2024/02/05 05:34:27;;;;;;;4.80;3.10;;;;;;;5.30;100.00;97743.30;137425;1274;22180;-83
2024/02/05 05:37:30;;;;;;;4.70;3.30;;;;;;;5.31;100.00;97744.02;137426;1274;22987;-82
2024/02/05 05:40:31;;;;;;;4.40;3.30;;;;;;;5.32;100.00;97744.71;137397;1274;22574;-82
2024/02/05 05:43:32;;;;;;;3.90;2.70;;;;;;;5.33;100.00;97748.17;137408;1273;22109;-83
2024/02/05 05:46:34;;;;;;;4.30;2.80;;;;;;;5.33;100.00;97745.08;137361;1274;22121;-82
2024/02/05 05:49:35;;;;;;;3.80;2.70;;;;;;;5.35;100.00;97741.30;137336;1274;22577;-83
2024/02/05 05:52:36;;;;;;;3.40;2.80;;;;;;;5.36;100.00;97738.23;137374;1274;22119;-81
2024/02/05 05:55:37;;;;;;;5.80;3.40;;;;;;;5.38;100.00;97733.94;137048;1274;419935;-83
2024/02/05 05:58:38;;;;;;;6.90;4.00;;;;;;;5.40;100.00;97739.83;137406;1273;22133;-81
2024/02/05 06:01:40;;;;;;;7.30;4.70;;;;;;;5.41;100.00;97738.64;137406;1274;22100;-83
2024/02/05 06:04:41;;;;;;;4.10;3.70;;;;;;;5.42;100.00;97744.17;137395;1274;22241;-83
2024/02/05 06:07:43;;;;;;;5.70;4.30;;;;;;;5.54;100.00;97728.80;137421;1274;22488;-81
2024/02/05 06:10:44;;;;;;;7.70;5.50;;;;;;;5.91;100.00;97727.77;137416;1274;22318;-81
2024/02/05 06:13:45;;;;;;;12.10;5.20;;;;;;;6.39;100.00;97729.39;137396;1266;22151;-81
2024/02/05 06:16:46;;;;;;;4.90;4.30;;;;;;;6.76;100.00;97729.41;137415;1270;22213;-81
2024/02/05 06:19:47;;;;;;;9.10;5.40;;;;;;;7.18;100.00;97730.12;137427;1274;22171;-82
2024/02/05 06:22:48;;;;;;;7.50;4.80;;;;;;;7.55;100.00;97726.73;137392;1274;22727;-82
2024/02/05 06:25:50;;;;;;;8.10;5.00;;;;;;;7.53;100.00;97727.24;137421;1274;22131;-82
2024/02/05 06:28:51;;;;;;;8.90;4.50;;;;;;;7.76;100.00;97729.28;137395;1274;22351;-84
2024/02/05 06:31:52;;;;;;;5.80;4.50;;;;;;;9.15;100.00;97726.01;137398;1259;22178;-83
2024/02/05 06:34:53;;;;;;;8.50;5.00;;;;;;;11.02;100.00;97728.84;137387;1274;22669;-83
2024/02/05 06:37:54;;;;;;;8.60;5.70;;;;;;;12.49;100.00;97726.66;137384;1274;22095;-82
2024/02/05 06:40:55;;;;;;;10.10;6.20;;;;;;;13.31;100.00;97730.75;137370;1274;22173;-83
2024/02/05 06:43:56;;;;;;;7.80;6.10;;;;;;;13.50;100.00;97726.41;137344;1268;22279;-83
2024/02/05 06:46:57;;;;;;;9.10;5.50;;;;;;;13.84;100.00;97731.04;137393;1274;22633;-83
2024/02/05 06:49:59;;;;;;;9.00;5.40;;;;;;;13.88;100.00;97737.42;137410;1274;22134;-83
2024/02/05 06:53:00;;;;;;;11.00;7.30;;;;;;;14.01;100.00;97746.11;137348;1274;22100;-83
2024/02/05 06:56:01;;;;;;;9.00;7.00;;;;;;;13.81;100.00;97749.27;137401;1274;22106;-85
2024/02/05 06:59:02;;;;;;;9.20;6.20;;;;;;;13.86;100.00;97756.70;137368;1274;22403;-83
2024/02/05 07:02:03;;;;;;;6.20;4.90;;;;;;;13.40;100.00;97757.48;137356;1274;22357;-83
2024/02/05 07:05:04;;;;;;;8.50;4.90;;;;;;;13.24;100.00;97752.53;137393;1270;22910;-83
2024/02/05 07:08:07;;;;;;;8.00;5.00;;;;;;;13.87;100.00;97755.81;137396;1274;22118;-82
2024/02/05 07:11:08;;;;;;;7.90;5.70;;;;;;;14.20;100.00;97760.63;137372;1274;22163;-83
2024/02/05 07:14:09;;;;;;;8.20;5.20;;;;;;;14.02;100.00;97762.20;137399;1274;22111;-83
2024/02/05 07:17:10;;;;;;;7.20;4.50;;;;;;;13.45;100.00;97758.98;137378;1274;22127;-83
2024/02/05 07:20:11;;;;;;;5.40;4.00;;;;;;;12.79;100.00;97764.15;137361;1266;22162;-81
2024/02/05 07:23:13;;;;;;;5.20;4.00;;;;;;;11.93;100.00;97770.39;137394;1274;22109;-83
2024/02/05 07:26:14;;;;;;;5.90;4.10;;;;;;;10.37;100.00;97772.35;137449;1273;22285;-82
2024/02/05 07:29:15;;;;;;;6.30;4.60;;;;;;;9.32;100.00;97777.79;137375;1273;22331;-82
2024/02/05 07:32:16;;;;;;;5.00;4.00;;;;;;;8.67;100.00;97786.71;137399;1273;22103;-82
2024/02/05 07:35:18;;;;;;;4.60;3.70;;;;;;;8.09;100.00;97790.80;137389;1273;22208;-83
2024/02/05 07:38:20;;;;;;;4.10;3.70;;;;;;;7.74;100.00;97798.72;137417;1274;22141;-82
2024/02/05 07:41:21;;;;;;;6.00;4.50;;;;;;;7.57;100.00;97798.77;137474;1274;22169;-82
2024/02/05 07:44:22;;;;;;;5.50;3.70;;;;;;;7.41;100.00;97805.92;137444;1274;22114;-82
2024/02/05 07:47:23;;;;;;;4.60;3.50;;;;;;;7.27;100.00;97807.71;137455;1274;22120;-81
2024/02/05 07:50:24;;;;;;;3.90;3.40;;;;;;;7.16;100.00;97813.34;137489;1274;22293;-82
2024/02/05 07:53:25;;;;;;;5.20;3.10;;;;;;;7.07;100.00;97820.69;137471;1274;22229;-81
2024/02/05 07:56:26;;;;;;;4.70;3.60;;;;;;;6.98;100.00;97823.02;137503;1274;22107;-82
2024/02/05 07:59:28;;;;;;;4.10;3.20;;;;;;;6.92;100.00;97817.07;137491;1274;22150;-81
2024/02/05 08:02:29;;;;;;;6.30;3.70;;;;;;;6.93;100.00;97818.65;137499;1274;22240;-82
2024/02/05 08:05:30;;;;;;;4.50;3.80;;;;;;;6.93;100.00;97819.86;137419;1274;22548;-82
2024/02/05 08:08:31;;;;;;;5.30;4.30;;;;;;;6.92;100.00;97828.13;137421;1274;22637;-83
2024/02/05 08:11:32;;;;;;;5.30;4.10;;;;;;;6.93;100.00;97837.84;137411;1259;22153;-82
2024/02/05 08:14:33;;;;;;;7.10;4.50;;;;;;;6.97;100.00;97849.67;137480;1274;22137;-83
2024/02/05 08:17:34;;;;;;;7.10;5.10;;;;;;;7.03;100.00;97855.95;137474;1274;22266;-82
2024/02/05 08:20:35;;;;;;;5.20;3.80;;;;;;;7.09;100.00;97857.03;137501;1274;22791;-83
2024/02/05 08:23:37;;;;;;;14.60;8.00;;;;;;;7.12;100.00;97860.52;137433;1274;22122;-83
2024/02/05 08:26:38;;;;;;;20.10;11.90;;;;;;;7.16;100.00;97847.60;137510;1274;22252;-82
2024/02/05 08:29:40;;;;;;;9.30;5.80;;;;;;;7.18;100.00;97864.05;137475;1274;22301;-84
2024/02/05 08:32:41;;;;;;;9.40;5.90;;;;;;;7.10;100.00;97867.96;137516;1274;22205;-83
2024/02/05 08:35:42;;;;;;;10.00;7.20;;;;;;;7.07;100.00;97865.84;137478;1274;22265;-83
2024/02/05 08:38:44;;;;;;;9.20;6.50;;;;;;;7.01;100.00;97863.02;137458;1270;22217;-83
2024/02/05 08:41:45;;;;;;;5.30;4.10;;;;;;;7.01;100.00;97864.92;137448;1274;22177;-83
2024/02/05 08:44:46;;;;;;;3.60;2.60;;;;;;;7.07;100.00;97871.90;137440;1274;22562;-83
2024/02/05 08:47:47;;;;;;;10.90;6.80;;;;;;;7.09;100.00;97876.42;137501;1274;22234;-82
2024/02/05 08:50:49;;;;;;;17.50;9.50;;;;;;;7.10;100.00;97876.95;137458;1274;22520;-82
2024/02/05 08:53:51;;;;;;;7.40;5.20;;;;;;;7.16;100.00;97876.66;137477;1274;22142;-82
2024/02/05 08:56:52;;;;;;;7.80;4.90;;;;;;;7.21;100.00;97877.57;137460;1274;22225;-82
2024/02/05 08:59:53;;;;;;;5.60;5.00;;;;;;;7.25;100.00;97877.77;137494;1274;22135;-82
2024/02/05 09:02:54;;;;;;;5.20;4.30;;;;;;;7.30;100.00;97878.52;137477;1262;22204;-83
2024/02/05 09:05:55;;;;;;;7.60;4.10;;;;;;;7.40;100.00;97875.66;137476;1274;22270;-82
2024/02/05 09:08:57;;;;;;;2.70;2.50;;;;;;;7.44;100.00;97882.63;137486;1274;22231;-82
2024/02/05 09:11:59;;;;;;;4.60;2.50;;;;;;;7.38;100.00;97892.44;137485;1274;22180;-82
2024/02/05 09:15:00;;;;;;;9.50;4.00;;;;;;;7.33;100.00;97898.11;137450;1274;22216;-83
2024/02/05 09:18:01;;;;;;;6.90;2.90;;;;;;;7.31;100.00;97894.81;137508;1274;22095;-83
2024/02/05 09:21:02;;;;;;;4.00;2.30;;;;;;;7.34;100.00;97893.45;137442;1274;22135;-81
2024/02/05 09:24:03;;;;;;;2.90;1.70;;;;;;;7.34;100.00;97894.48;137471;1262;22277;-83
2024/02/05 09:27:05;;;;;;;5.20;3.00;;;;;;;7.38;100.00;97892.96;137460;1274;22219;-82
2024/02/05 09:30:06;;;;;;;4.20;3.10;;;;;;;7.42;100.00;97888.49;137501;1262;22103;-82
2024/02/05 09:33:07;;;;;;;3.70;2.40;;;;;;;7.44;100.00;97885.05;137484;1274;22160;-82
2024/02/05 09:36:09;;;;;;;4.20;2.70;;;;;;;7.43;100.00;97887.81;137547;1267;22127;-82
2024/02/05 09:39:11;;;;;;;5.80;4.20;;;;;;;7.46;100.00;97885.59;137527;1274;22190;-83
2024/02/05 09:42:12;;;;;;;6.60;4.70;;;;;;;7.52;100.00;97896.73;137425;1274;22220;-82
2024/02/05 09:45:13;;;;;;;4.60;2.60;;;;;;;7.52;100.00;97893.78;137458;1274;22204;-82
2024/02/05 09:48:14;;;;;;;4.80;4.10;;;;;;;7.50;100.00;97893.59;137512;1274;22265;-81
2024/02/05 09:51:17;;;;;;;5.60;3.60;;;;;;;7.55;100.00;97896.05;137286;1274;22141;-82
2024/02/05 09:54:18;;;;;;;7.80;5.40;;;;;;;7.55;100.00;97894.16;137475;1274;22156;-83
2024/02/05 09:57:19;;;;;;;14.80;8.40;;;;;;;7.59;100.00;97891.23;137490;1274;22639;-82
2024/02/05 10:00:20;;;;;;;12.80;6.90;;;;;;;7.62;100.00;97893.69;137503;1274;22165;-82
2024/02/05 10:03:21;;;;;;;5.60;4.10;;;;;;;7.53;100.00;97898.98;137468;1274;22195;-82
2024/02/05 10:06:22;;;;;;;8.10;4.90;;;;;;;7.50;100.00;97899.30;137416;1274;22529;-81
2024/02/05 10:09:23;;;;;;;5.80;4.00;;;;;;;7.54;100.00;97895.88;137475;1274;22116;-83
2024/02/05 10:12:24;;;;;;;7.30;4.20;;;;;;;7.51;100.00;97895.85;137455;1274;22166;-83
2024/02/05 10:15:26;;;;;;;7.20;4.40;;;;;;;7.44;100.00;97892.31;137468;1274;22845;-84
2024/02/05 10:18:27;;;;;;;3.10;2.20;;;;;;;7.39;100.00;97898.52;137473;1262;22134;-83
2024/02/05 10:21:28;;;;;;;4.40;2.90;;;;;;;7.34;100.00;97892.23;137459;1274;22141;-83
2024/02/05 10:24:29;;;;;;;3.00;2.20;;;;;;;7.30;100.00;97893.40;137492;1274;22117;-84
2024/02/05 10:27:30;;;;;;;3.20;2.80;;;;;;;7.25;100.00;97898.20;137484;1274;22269;-84
2024/02/05 10:30:31;;;;;;;4.20;2.40;;;;;;;7.26;100.00;97897.86;137484;1274;22146;-84
2024/02/05 10:33:32;;;;;;;3.40;2.40;;;;;;;7.30;100.00;97892.19;137478;1268;22834;-84
2024/02/05 10:36:34;;;;;;;6.10;4.30;;;;;;;7.30;100.00;97895.66;137496;1274;22174;-84
2024/02/05 10:39:35;;;;;;;9.30;4.30;;;;;;;7.28;100.00;97893.39;137538;1274;22258;-83
2024/02/05 10:42:36;;;;;;;8.40;4.80;;;;;;;7.30;100.00;97891.33;137574;1274;22179;-84
2024/02/05 10:45:39;;;;;;;10.30;4.90;;;;;;;7.34;100.00;97889.98;137611;1274;22092;-83
2024/02/05 10:48:42;;;;;;;9.30;4.10;;;;;;;7.41;100.00;97888.65;137599;1274;22227;-82
2024/02/05 10:51:43;;;;;;;5.20;3.00;;;;;;;7.44;100.00;97894.06;137581;1274;22120;-82
2024/02/05 10:54:44;;;;;;;6.50;4.10;;;;;;;7.43;100.00;97902.17;137540;1267;22072;-83
2024/02/05 10:57:45;;;;;;;3.80;3.00;;;;;;;7.38;100.00;97899.54;137478;1274;22087;-83
2024/02/05 11:00:46;;;;;;;6.70;4.10;;;;;;;7.42;100.00;97894.55;137448;1274;22319;-83
2024/02/05 11:03:47;;;;;;;4.30;3.20;;;;;;;7.42;100.00;97896.45;137442;1274;22178;-83
2024/02/05 11:06:48;;;;;;;5.50;3.90;;;;;;;7.38;100.00;97899.54;137431;1274;22168;-83
2024/02/05 11:09:50;;;;;;;4.70;3.00;;;;;;;7.38;100.00;97897.46;137478;1274;22080;-84
2024/02/05 11:12:51;;;;;;;5.30;3.20;;;;;;;7.39;100.00;97901.80;137447;1274;22130;-82
2024/02/05 11:15:52;;;;;;;5.30;4.70;;;;;;;7.35;100.00;97903.33;137420;1273;22178;-84
2024/02/05 11:18:53;;;;;;;4.10;3.00;;;;;;;7.29;100.00;97902.56;137405;1274;22098;-84
2024/02/05 11:21:55;;;;;;;3.10;2.80;;;;;;;7.26;100.00;97894.05;137370;1274;22133;-83
2024/02/05 11:24:56;;;;;;;3.00;2.70;;;;;;;7.26;100.00;97892.15;137433;1274;22088;-84
2024/02/05 11:27:57;;;;;;;4.10;2.70;;;;;;;7.26;100.00;97888.17;137416;1274;22123;-83
2024/02/05 11:31:00;;;;;;;4.00;2.50;;;;;;;7.24;100.00;97890.58;137430;1274;22151;-83
2024/02/05 11:34:01;;;;;;;6.40;4.60;;;;;;;7.20;100.00;97895.56;137426;1274;22146;-83
2024/02/05 11:37:03;;;;;;;5.50;4.40;;;;;;;7.16;100.00;97893.96;137419;1274;22307;-84
2024/02/05 11:40:04;;;;;;;9.90;8.00;;;;;;;7.09;100.00;97907.04;137431;1274;22062;-83
2024/02/05 11:43:05;;;;;;;9.60;7.50;;;;;;;6.98;100.00;97904.83;137437;1270;22289;-82
2024/02/05 11:46:06;;;;;;;16.20;9.90;;;;;;;6.89;100.00;97902.81;137438;1274;22120;-82
2024/02/05 11:49:07;;;;;;;5.30;4.10;;;;;;;6.82;100.00;97902.73;137416;1267;22149;-83
2024/02/05 11:52:09;;;;;;;6.30;3.80;;;;;;;6.79;100.00;97902.70;137411;1274;22631;-82
2024/02/05 11:55:10;;;;;;;7.00;4.40;;;;;;;6.77;100.00;97907.68;137428;1270;22121;-82
2024/02/05 11:58:11;;;;;;;4.30;3.30;;;;;;;6.75;100.00;97905.41;137438;1274;22125;-83
2024/02/05 12:01:13;;;;;;;4.00;2.70;;;;;;;6.72;100.00;97906.06;137448;1274;22171;-83
2024/02/05 12:04:15;;;;;;;6.80;3.30;;;;;;;6.67;100.00;97908.25;137446;1274;22093;-82
2024/02/05 12:07:16;;;;;;;5.60;3.50;;;;;;;6.59;100.00;97916.45;137400;1274;22245;-82
2024/02/05 12:10:17;;;;;;;6.10;4.00;;;;;;;6.54;100.00;97910.17;137439;1274;22158;-82
2024/02/05 12:13:18;;;;;;;4.60;3.70;;;;;;;6.56;100.00;97907.08;137443;1274;22173;-81
2024/02/05 12:16:19;;;;;;;5.80;4.60;;;;;;;6.56;100.00;97918.83;137488;1274;22171;-83
2024/02/05 12:19:21;;;;;;;7.10;3.60;;;;;;;6.54;100.00;97917.60;137469;1274;22119;-83
2024/02/05 12:22:22;;;;;;;7.60;4.80;;;;;;;6.52;100.00;97915.16;137354;1256;22108;-83
2024/02/05 12:25:23;;;;;;;6.20;4.30;;;;;;;6.50;100.00;97921.52;137461;1274;22116;-83
2024/02/05 12:28:25;;;;;;;5.10;3.60;;;;;;;6.56;100.00;97914.34;137448;1274;22115;-83
2024/02/05 12:31:26;;;;;;;6.30;4.20;;;;;;;6.64;100.00;97914.27;137414;1274;22699;-83
2024/02/05 12:34:27;;;;;;;8.70;4.20;;;;;;;6.92;100.00;97914.80;137458;1270;22096;-84
2024/02/05 12:37:28;;;;;;;8.50;5.80;;;;;;;7.06;100.00;97913.77;137451;1274;22168;-85
2024/02/05 12:40:30;;;;;;;6.50;4.80;;;;;;;6.95;100.00;97912.73;137494;1274;22526;-83
2024/02/05 12:43:31;;;;;;;12.60;7.20;;;;;;;7.04;100.00;97912.52;137505;1262;22628;-83
2024/02/05 12:46:32;;;;;;;16.20;9.20;;;;;;;7.00;100.00;97914.21;137483;1269;22191;-84
2024/02/05 12:49:33;;;;;;;20.80;9.40;;;;;;;7.14;100.00;97914.70;137443;1274;22258;-83
2024/02/05 12:52:34;;;;;;;18.20;9.90;;;;;;;7.22;100.00;97906.66;137439;1274;22139;-83
2024/02/05 12:55:35;;;;;;;8.50;5.10;;;;;;;7.29;100.00;97910.53;137453;1274;22408;-84
2024/02/05 12:58:36;;;;;;;10.90;4.80;;;;;;;7.27;100.00;97908.26;137452;1274;22107;-82
2024/02/05 13:01:37;;;;;;;5.80;4.30;;;;;;;7.22;100.00;97909.94;137455;1274;22091;-81
2024/02/05 13:04:39;;;;;;;8.10;4.50;;;;;;;7.09;100.00;97907.21;137458;1273;22799;-82
2024/02/05 13:07:40;;;;;;;6.90;4.50;;;;;;;7.15;100.00;97904.16;137464;1274;22161;-84
2024/02/05 13:10:41;;;;;;;6.10;4.70;;;;;;;7.33;100.00;97902.95;137368;1274;22131;-82
2024/02/05 13:13:42;;;;;;;8.30;4.60;;;;;;;7.73;100.00;97906.42;137420;1274;22102;-83
2024/02/05 13:16:43;;;;;;;6.40;5.00;;;;;;;8.44;100.00;97905.05;137440;1274;22512;-84
2024/02/05 13:19:45;;;;;;;10.90;6.70;;;;;;;8.56;100.00;97905.29;137431;1274;22240;-83
2024/02/05 13:22:46;;;;;;;10.80;6.90;;;;;;;8.47;100.00;97907.33;137407;1274;22336;-83
2024/02/05 13:25:48;;;;;;;10.70;7.90;;;;;;;8.39;100.00;97913.52;137400;1274;22148;-83
2024/02/05 13:28:49;;;;;;;16.90;9.10;;;;;;;8.50;100.00;97912.89;137416;1270;22230;-83
2024/02/05 13:31:51;;;;;;;12.10;7.90;;;;;;;8.46;100.00;97914.06;137435;1274;22428;-81
2024/02/05 13:34:52;;;;;;;14.80;9.40;;;;;;;8.08;100.00;97919.70;137469;1274;22619;-82
2024/02/05 13:37:53;;;;;;;17.60;11.20;;;;;;;7.84;100.00;97929.21;137456;1274;22183;-81
2024/02/05 13:40:55;;;;;;;17.00;11.60;;;;;;;7.58;100.00;97928.98;137421;1265;22113;-81
2024/02/05 13:43:56;;;;;;;16.40;11.60;;;;;;;7.40;100.00;97920.84;137420;1274;22226;-81
2024/02/05 13:46:58;;;;;;;16.10;11.10;;;;;;;7.24;100.00;97933.31;137450;1274;22091;-81
2024/02/05 13:49:59;;;;;;;19.80;11.30;;;;;;;7.17;100.00;97914.21;137466;1274;22191;-81
2024/02/05 13:53:01;;;;;;;9.40;7.60;;;;;;;7.14;100.00;97931.84;137402;1274;22146;-81
2024/02/05 13:56:04;;;;;;;9.90;6.10;;;;;;;7.14;100.00;97932.16;137310;1274;22346;-80
2024/02/05 13:59:05;;;;;;;9.70;6.10;;;;;;;7.07;100.00;97933.65;137489;1274;22105;-82
2024/02/05 14:02:07;;;;;;;14.80;9.90;;;;;;;6.99;100.00;97930.63;137427;1274;22183;-81